createdAt,value
2022-12-31T00:01:12.265Z,52.29
2022-12-31T00:03:40.803Z,52.42
2022-12-31T00:06:31.361Z,52.69
2022-12-31T00:09:01.420Z,52.62
2022-12-31T00:11:31.236Z,52.35
2022-12-31T00:13:59.287Z,52.29
2022-12-31T00:16:31.505Z,52.61
2022-12-31T00:19:01.270Z,52.58
2022-12-31T00:21:32.121Z,52.99
2022-12-31T00:24:00.100Z,52.80
2022-12-31T00:26:32.969Z,53.18
2022-12-31T00:29:02.080Z,53.16
2022-12-31T00:31:32.020Z,53.16
2022-12-31T00:34:00.309Z,53.22
2022-12-31T00:36:32.476Z,52.83
2022-12-31T00:39:02.083Z,53.02
2022-12-31T00:41:30.169Z,52.71
2022-12-31T00:43:58.047Z,52.91
2022-12-31T00:46:26.873Z,52.89
2022-12-31T00:48:55.069Z,53.26
2022-12-31T00:51:27.678Z,53.39
2022-12-31T00:53:57.403Z,53.41
2022-12-31T00:56:29.395Z,53.23
2022-12-31T00:58:57.815Z,53.28
2022-12-31T01:01:30.033Z,53.50
2022-12-31T01:04:13.867Z,53.61
2022-12-31T01:06:43.438Z,53.75
2022-12-31T01:09:13.885Z,53.68
2022-12-31T01:11:42.273Z,53.74
2022-12-31T01:14:17.615Z,53.61
2022-12-31T01:16:52.208Z,53.84
2022-12-31T01:19:27.335Z,53.43
2022-12-31T01:21:56.527Z,53.41
2022-12-31T01:24:24.109Z,53.51
2022-12-31T01:26:52.231Z,53.50
2022-12-31T01:29:19.834Z,53.76
2022-12-31T01:31:47.735Z,53.73
2022-12-31T01:34:15.292Z,53.24
2022-12-31T01:36:43.100Z,53.56
2022-12-31T01:39:12.270Z,53.19
2022-12-31T01:41:42.835Z,53.75
2022-12-31T01:44:13.050Z,53.62
2022-12-31T01:47:01.141Z,54.13
2022-12-31T01:49:51.492Z,54.03
2022-12-31T01:52:38.520Z,54.06
2022-12-31T01:55:31.975Z,54.16
2022-12-31T01:58:19.787Z,54.11
2022-12-31T02:00:48.249Z,54.40
2022-12-31T02:03:16.275Z,54.04
2022-12-31T02:05:58.465Z,53.81
2022-12-31T02:08:26.291Z,53.94
2022-12-31T02:10:53.842Z,54.25
2022-12-31T02:13:22.056Z,54.33
2022-12-31T02:16:12.569Z,53.91
2022-12-31T02:18:56.334Z,54.10
2022-12-31T02:21:41.487Z,54.00
2022-12-31T02:24:31.577Z,53.89
2022-12-31T02:27:10.059Z,54.27
2022-12-31T02:30:08.643Z,54.01
2022-12-31T02:32:56.326Z,53.72
2022-12-31T02:35:45.944Z,54.21
2022-12-31T02:38:26.935Z,54.36
2022-12-31T02:40:55.262Z,53.67
2022-12-31T02:43:23.969Z,53.85
2022-12-31T02:46:42.563Z,54.02
2022-12-31T02:50:03.251Z,53.37
2022-12-31T02:52:59.027Z,53.80
2022-12-31T02:55:42.031Z,54.18
2022-12-31T02:58:57.353Z,54.85
2022-12-31T03:01:51.669Z,55.97
2022-12-31T03:04:33.415Z,56.08
2022-12-31T03:07:11.492Z,56.98
2022-12-31T03:09:39.782Z,57.79
2022-12-31T03:12:29.474Z,58.22
2022-12-31T03:14:58.114Z,59.12
2022-12-31T03:17:26.443Z,60.16
2022-12-31T03:20:12.954Z,61.17
2022-12-31T03:22:43.210Z,61.41
2022-12-31T03:25:35.768Z,61.69
2022-12-31T03:28:15.638Z,62.02
2022-12-31T03:30:49.353Z,61.83
2022-12-31T03:33:17.525Z,61.81
2022-12-31T03:35:48.037Z,60.56
2022-12-31T03:38:16.839Z,60.11
2022-12-31T03:40:49.177Z,58.55
2022-12-31T03:43:16.979Z,58.01
2022-12-31T03:45:47.776Z,57.42
2022-12-31T03:48:15.266Z,56.25
2022-12-31T03:50:43.067Z,56.29
2022-12-31T03:53:11.400Z,55.98
2022-12-31T03:55:39.323Z,55.56
2022-12-31T03:58:07.035Z,55.45
2022-12-31T04:00:35.242Z,55.45
2022-12-31T04:03:02.821Z,55.22
2022-12-31T04:05:31.332Z,55.05
2022-12-31T04:07:58.832Z,54.26
2022-12-31T04:10:26.714Z,54.69
2022-12-31T04:12:54.255Z,54.14
2022-12-31T04:15:22.417Z,54.13
2022-12-31T04:17:49.924Z,53.95
2022-12-31T04:20:17.826Z,54.20
2022-12-31T04:22:45.347Z,53.84
2022-12-31T04:25:13.504Z,53.81
2022-12-31T04:27:43.777Z,53.61
2022-12-31T04:30:14.156Z,53.01
2022-12-31T04:32:42.205Z,53.58
2022-12-31T04:35:11.730Z,53.38
2022-12-31T04:37:39.806Z,53.44
2022-12-31T04:40:12.100Z,52.96
2022-12-31T04:42:41.385Z,53.36
2022-12-31T04:45:09.905Z,53.46
2022-12-31T04:47:37.692Z,53.50
2022-12-31T04:50:06.574Z,53.57
2022-12-31T04:52:38.737Z,53.46
2022-12-31T04:55:12.032Z,53.00
2022-12-31T04:57:41.473Z,53.62
2022-12-31T05:00:10.361Z,53.43
2022-12-31T05:02:38.294Z,54.62
2022-12-31T05:05:07.155Z,55.87
2022-12-31T05:07:35.187Z,56.63
2022-12-31T05:10:04.211Z,57.79
2022-12-31T05:12:31.846Z,59.09
2022-12-31T05:14:59.781Z,60.10
2022-12-31T05:17:27.271Z,60.58
2022-12-31T05:19:55.275Z,61.30
2022-12-31T05:22:31.942Z,62.22
2022-12-31T05:25:01.745Z,62.67
2022-12-31T05:27:33.318Z,62.73
2022-12-31T05:30:01.273Z,62.43
2022-12-31T05:32:29.284Z,61.64
2022-12-31T05:34:59.716Z,61.82
2022-12-31T05:37:31.351Z,62.24
2022-12-31T05:39:59.654Z,61.26
2022-12-31T05:42:27.848Z,60.48
2022-12-31T05:44:55.835Z,59.62
2022-12-31T05:47:25.108Z,59.16
2022-12-31T05:49:53.847Z,58.42
2022-12-31T05:52:22.647Z,57.43
2022-12-31T05:54:50.714Z,57.22
2022-12-31T05:57:18.767Z,56.16
2022-12-31T05:59:46.762Z,55.83
2022-12-31T06:02:14.318Z,55.33
2022-12-31T06:04:42.211Z,54.81
2022-12-31T06:07:09.803Z,55.06
2022-12-31T06:09:37.660Z,54.72
2022-12-31T06:12:06.288Z,53.44
2022-12-31T06:14:34.836Z,53.59
2022-12-31T06:17:03.447Z,53.51
2022-12-31T06:19:31.496Z,53.45
2022-12-31T06:21:59.081Z,53.21
2022-12-31T06:24:26.943Z,52.80
2022-12-31T06:26:54.591Z,52.90
2022-12-31T06:29:22.451Z,52.63
2022-12-31T06:31:49.912Z,52.37
2022-12-31T06:34:17.936Z,52.43
2022-12-31T06:36:45.545Z,52.21
2022-12-31T06:39:13.382Z,52.04
2022-12-31T06:41:41.070Z,52.17
2022-12-31T06:44:08.941Z,51.62
2022-12-31T06:46:36.523Z,52.03
2022-12-31T06:49:04.374Z,52.35
2022-12-31T06:51:31.909Z,52.16
2022-12-31T06:53:59.803Z,52.23
2022-12-31T06:56:34.404Z,52.55
2022-12-31T06:59:05.087Z,52.53
2022-12-31T07:02:01.143Z,52.67
2022-12-31T07:04:55.839Z,55.48
2022-12-31T07:08:06.383Z,56.53
2022-12-31T07:11:04.373Z,58.15
2022-12-31T07:14:22.034Z,59.74
2022-12-31T07:16:59.865Z,60.99
2022-12-31T07:20:01.108Z,58.07
2022-12-31T07:22:29.801Z,56.92
2022-12-31T07:24:57.946Z,55.92
2022-12-31T07:27:53.135Z,55.16
2022-12-31T07:30:24.555Z,54.82
2022-12-31T07:33:20.392Z,53.93
2022-12-31T07:36:29.079Z,53.00
2022-12-31T07:39:02.431Z,52.42
2022-12-31T07:41:47.848Z,52.86
2022-12-31T07:44:24.873Z,52.37
2022-12-31T07:47:01.813Z,51.74
2022-12-31T07:49:33.484Z,51.59
2022-12-31T07:52:04.716Z,50.65
2022-12-31T07:54:32.783Z,50.45
2022-12-31T07:57:01.151Z,50.63
2022-12-31T08:00:05.651Z,51.38
2022-12-31T08:03:11.924Z,53.27
2022-12-31T08:05:50.910Z,52.48
2022-12-31T08:08:29.515Z,53.15
2022-12-31T08:12:09.053Z,54.24
2022-12-31T08:14:54.712Z,55.17
2022-12-31T08:17:23.179Z,56.17
2022-12-31T08:19:51.389Z,56.99
2022-12-31T08:22:41.456Z,58.05
2022-12-31T08:42:48.443Z,60.80
2022-12-31T08:45:53.146Z,61.00
2022-12-31T08:48:47.906Z,60.58
2022-12-31T08:51:25.687Z,60.25
2022-12-31T08:53:55.397Z,60.33
2022-12-31T08:56:50.195Z,61.51
2022-12-31T08:59:34.124Z,61.88
2022-12-31T09:02:08.330Z,61.94
2022-12-31T09:05:05.801Z,61.70
2022-12-31T09:07:50.856Z,62.09
2022-12-31T09:11:08.891Z,62.28
2022-12-31T09:14:02.543Z,62.94
2022-12-31T09:17:17.988Z,62.99
2022-12-31T09:19:46.390Z,63.24
2022-12-31T09:22:14.408Z,63.79
2022-12-31T09:24:42.648Z,64.29
2022-12-31T09:27:46.285Z,62.79
2022-12-31T09:30:17.859Z,62.10
2022-12-31T09:33:17.591Z,61.98
2022-12-31T09:35:56.096Z,61.26
2022-12-31T09:38:37.421Z,61.26
2022-12-31T09:41:25.470Z,61.35
2022-12-31T09:44:20.676Z,61.56
2022-12-31T09:47:46.489Z,60.75
2022-12-31T09:50:29.105Z,60.59
2022-12-31T09:53:19.013Z,59.44
2022-12-31T09:56:14.485Z,58.93
2022-12-31T09:58:48.472Z,59.66
2022-12-31T10:01:45.299Z,59.97
2022-12-31T10:04:42.826Z,60.79
2022-12-31T10:07:15.765Z,60.91
2022-12-31T10:10:14.522Z,60.98
2022-12-31T10:13:03.315Z,61.67
2022-12-31T10:16:12.012Z,61.55
2022-12-31T10:18:53.852Z,61.87
2022-12-31T10:21:36.592Z,61.44
2022-12-31T10:24:34.131Z,61.41
2022-12-31T10:27:36.737Z,61.33
2022-12-31T10:30:24.211Z,61.25
2022-12-31T10:33:20.964Z,60.53
2022-12-31T10:36:28.788Z,60.84
2022-12-31T10:39:26.909Z,60.17
2022-12-31T10:42:25.326Z,60.75
2022-12-31T10:45:19.756Z,60.48
2022-12-31T10:48:05.210Z,60.55
2022-12-31T10:51:26.282Z,60.13
2022-12-31T10:54:28.075Z,59.67
2022-12-31T10:57:20.619Z,59.46
2022-12-31T11:00:11.585Z,58.35
2022-12-31T11:02:58.159Z,57.81
2022-12-31T11:05:56.249Z,57.68
2022-12-31T11:09:02.261Z,57.06
2022-12-31T11:12:00.781Z,57.15
2022-12-31T11:14:39.877Z,57.35
2022-12-31T11:17:45.615Z,57.52
2022-12-31T11:20:23.862Z,57.23
2022-12-31T11:23:38.796Z,57.35
2022-12-31T11:26:32.174Z,54.66
2022-12-31T11:29:25.798Z,54.83
2022-12-31T11:32:13.091Z,54.79
2022-12-31T11:35:10.154Z,54.58
2022-12-31T11:37:47.553Z,54.69
2022-12-31T11:40:59.369Z,54.73
2022-12-31T11:43:50.125Z,54.99
2022-12-31T11:46:39.259Z,54.72
2022-12-31T11:49:34.307Z,54.36
2022-12-31T11:52:41.713Z,54.15
2022-12-31T11:55:38.255Z,53.54
2022-12-31T11:58:20.470Z,52.78
2022-12-31T12:01:21.252Z,51.92
2022-12-31T12:03:49.415Z,51.59
2022-12-31T12:06:24.950Z,50.63
2022-12-31T12:08:55.968Z,50.57
2022-12-31T12:11:29.934Z,49.77
2022-12-31T12:13:58.055Z,48.93
2022-12-31T12:16:28.380Z,48.93
2022-12-31T12:19:07.315Z,48.38
2022-12-31T12:21:35.082Z,47.38
2022-12-31T12:24:17.182Z,47.81
2022-12-31T12:26:45.591Z,46.98
2022-12-31T12:29:32.249Z,46.04
2022-12-31T12:32:15.041Z,45.65
2022-12-31T12:34:49.155Z,45.35
2022-12-31T12:37:34.712Z,45.62
2022-12-31T12:40:19.051Z,46.00
2022-12-31T12:42:51.379Z,46.92
2022-12-31T12:45:30.255Z,46.79
2022-12-31T12:48:01.208Z,46.89
2022-12-31T12:50:46.952Z,46.78
2022-12-31T12:53:42.706Z,47.81
2022-12-31T12:56:31.966Z,46.50
2022-12-31T12:59:37.854Z,45.85
2022-12-31T13:02:48.861Z,45.54
2022-12-31T13:05:46.650Z,45.99
2022-12-31T13:08:29.041Z,44.13
2022-12-31T13:11:32.828Z,43.91
2022-12-31T13:14:22.313Z,43.96
2022-12-31T13:17:31.380Z,44.26
2022-12-31T13:20:22.803Z,44.18
2022-12-31T13:23:27.588Z,42.96
2022-12-31T13:26:27.002Z,44.26
2022-12-31T13:28:56.746Z,44.44
2022-12-31T13:31:33.876Z,44.35
2022-12-31T13:34:13.299Z,42.41
2022-12-31T13:36:45.085Z,43.75
2022-12-31T13:39:32.333Z,40.77
2022-12-31T13:42:24.496Z,40.00
2022-12-31T13:45:00.913Z,40.77
2022-12-31T13:47:42.308Z,40.60
2022-12-31T13:50:36.480Z,38.63
2022-12-31T13:53:37.134Z,40.04
2022-12-31T13:56:21.983Z,39.95
2022-12-31T13:59:00.509Z,39.12
2022-12-31T14:01:34.454Z,38.84
2022-12-31T14:04:18.962Z,38.98
2022-12-31T14:07:32.229Z,40.84
2022-12-31T14:10:03.400Z,41.68
2022-12-31T14:13:10.285Z,41.55
2022-12-31T14:16:21.034Z,42.30
2022-12-31T14:19:08.922Z,44.29
2022-12-31T14:22:09.628Z,44.88
2022-12-31T14:24:51.151Z,45.56
2022-12-31T14:27:43.319Z,45.96
2022-12-31T14:30:19.512Z,47.01
2022-12-31T14:33:04.999Z,47.65
2022-12-31T14:36:10.370Z,48.43
2022-12-31T14:38:45.510Z,49.10
2022-12-31T14:42:12.490Z,50.23
2022-12-31T14:45:35.851Z,50.24
2022-12-31T14:48:26.104Z,50.69
2022-12-31T14:50:55.063Z,51.79
2022-12-31T14:53:26.915Z,50.94
2022-12-31T14:56:40.198Z,49.81
2022-12-31T15:00:21.271Z,50.08
2022-12-31T15:02:53.497Z,49.76
2022-12-31T15:05:25.703Z,49.71
2022-12-31T15:08:14.256Z,49.34
2022-12-31T15:11:26.788Z,49.20
2022-12-31T15:14:33.697Z,48.68
2022-12-31T15:17:43.872Z,50.36
2022-12-31T15:20:35.389Z,51.46
2022-12-31T15:23:11.891Z,51.74
2022-12-31T15:25:41.620Z,53.02
2022-12-31T15:28:35.699Z,52.85
2022-12-31T15:31:19.158Z,53.09
2022-12-31T15:34:34.895Z,53.31
2022-12-31T15:37:07.150Z,52.94
2022-12-31T15:39:34.945Z,52.79
2022-12-31T15:42:36.882Z,52.38
2022-12-31T15:45:00.620Z,52.31
2022-12-31T15:47:41.631Z,52.80
2022-12-31T15:50:22.595Z,52.70
2022-12-31T15:53:00.928Z,52.41
2022-12-31T15:55:50.969Z,52.32
2022-12-31T15:58:26.381Z,52.03
2022-12-31T16:01:24.830Z,52.40
2022-12-31T16:04:14.280Z,52.50
2022-12-31T16:06:48.931Z,52.30
2022-12-31T16:09:39.892Z,52.46
2022-12-31T16:12:30.798Z,52.37
2022-12-31T16:15:00.623Z,51.81
2022-12-31T16:17:31.165Z,51.70
2022-12-31T16:20:01.552Z,51.78
2022-12-31T16:22:38.437Z,51.90
2022-12-31T16:25:32.341Z,51.84
2022-12-31T16:28:03.739Z,51.51
2022-12-31T16:30:36.399Z,51.75
2022-12-31T16:33:12.569Z,51.68
2022-12-31T16:35:40.480Z,51.76
2022-12-31T16:38:19.590Z,51.83
2022-12-31T16:41:02.482Z,52.06
2022-12-31T16:43:43.248Z,52.30
2022-12-31T16:46:28.902Z,52.57
2022-12-31T16:49:03.053Z,52.59
2022-12-31T16:51:33.892Z,52.95
2022-12-31T16:54:02.766Z,52.84
2022-12-31T16:56:38.137Z,53.19
2022-12-31T16:59:40.175Z,53.09
2022-12-31T17:02:20.951Z,53.37
2022-12-31T17:04:55.899Z,53.50
2022-12-31T17:07:32.624Z,53.37
2022-12-31T17:10:09.458Z,53.29
2022-12-31T17:13:25.324Z,53.37
2022-12-31T17:15:43.446Z,53.20
2022-12-31T17:18:38.704Z,53.39
2022-12-31T17:21:10.168Z,53.85
2022-12-31T17:23:39.928Z,53.93
2022-12-31T17:26:14.971Z,53.84
2022-12-31T17:28:52.894Z,54.00
2022-12-31T17:31:43.236Z,54.39
2022-12-31T17:34:13.503Z,54.64
2022-12-31T17:37:15.889Z,54.86
2022-12-31T17:39:54.666Z,55.56
2022-12-31T17:42:34.487Z,55.47
2022-12-31T17:45:28.023Z,55.95
2022-12-31T17:48:00.519Z,55.91
2022-12-31T17:50:28.745Z,56.03
2022-12-31T17:53:11.677Z,56.10
2022-12-31T17:55:39.655Z,56.04
2022-12-31T17:58:08.139Z,56.36
2022-12-31T18:00:37.756Z,56.66
2022-12-31T18:03:05.706Z,56.69
2022-12-31T18:05:33.330Z,56.98
2022-12-31T18:08:01.142Z,57.24
2022-12-31T18:10:35.315Z,57.21
2022-12-31T18:13:07.065Z,57.34
2022-12-31T18:15:34.677Z,57.48
2022-12-31T18:18:12.270Z,57.78
2022-12-31T18:20:39.890Z,58.15
2022-12-31T18:23:17.780Z,58.58
2022-12-31T18:28:13.239Z,59.02
2022-12-31T18:30:41.043Z,59.47
2022-12-31T18:33:12.955Z,59.78
2022-12-31T18:36:07.828Z,59.87
2022-12-31T18:38:30.840Z,59.85
2022-12-31T18:40:59.527Z,60.09
2022-12-31T18:43:27.556Z,59.86
2022-12-31T18:45:55.126Z,60.17
2022-12-31T18:48:23.011Z,59.77
2022-12-31T18:50:51.074Z,59.82
2022-12-31T18:53:22.805Z,59.26
2022-12-31T18:55:56.821Z,59.13
2022-12-31T18:58:24.895Z,58.87
2022-12-31T19:00:52.986Z,59.35
2022-12-31T19:03:24.299Z,59.21
2022-12-31T19:05:52.430Z,59.31
2022-12-31T19:08:22.756Z,59.69
2022-12-31T19:10:52.308Z,59.77
2022-12-31T19:13:20.910Z,59.82
2022-12-31T19:15:52.250Z,60.09
2022-12-31T19:18:20.357Z,60.11
2022-12-31T19:20:48.037Z,60.04
2022-12-31T19:23:20.615Z,59.83
2022-12-31T19:25:49.794Z,59.49
2022-12-31T19:28:18.724Z,59.66
2022-12-31T19:30:46.603Z,59.56
2022-12-31T19:33:15.268Z,59.67
2022-12-31T19:35:43.676Z,59.65
2022-12-31T19:38:25.478Z,59.40
2022-12-31T19:40:54.130Z,59.42
2022-12-31T19:43:23.719Z,59.84
2022-12-31T19:45:51.832Z,59.77
2022-12-31T19:48:32.074Z,60.12
2022-12-31T19:51:00.650Z,59.62
2022-12-31T19:53:28.855Z,59.77
2022-12-31T19:55:57.043Z,59.55
2022-12-31T19:58:27.209Z,59.36
2022-12-31T20:01:01.922Z,58.91
2022-12-31T20:03:32.764Z,58.56
2022-12-31T20:06:09.898Z,58.17
2022-12-31T20:08:39.963Z,57.84
2022-12-31T20:11:18.138Z,57.73
2022-12-31T20:13:48.368Z,57.44
2022-12-31T20:16:19.673Z,57.35
2022-12-31T20:18:48.453Z,56.78
2022-12-31T20:21:23.225Z,56.84
2022-12-31T20:23:53.534Z,56.10
2022-12-31T20:26:24.161Z,55.57
2022-12-31T20:28:53.177Z,55.50
2022-12-31T20:31:25.276Z,54.94
2022-12-31T20:33:54.789Z,54.70
2022-12-31T20:36:23.144Z,54.79
2022-12-31T20:38:51.329Z,53.57
2022-12-31T20:41:21.921Z,53.40
2022-12-31T20:43:50.910Z,52.38
2022-12-31T20:46:24.955Z,51.94
2022-12-31T20:48:55.598Z,52.33
2022-12-31T20:51:24.652Z,51.95
2022-12-31T20:54:00.538Z,51.44
2022-12-31T20:56:32.183Z,51.64
2022-12-31T20:59:01.303Z,51.46
2022-12-31T21:01:47.805Z,51.69
2022-12-31T21:04:17.454Z,51.37
2022-12-31T21:06:45.409Z,51.27
2022-12-31T21:09:14.106Z,51.38
2022-12-31T21:12:00.423Z,51.43
2022-12-31T21:14:29.148Z,51.56
2022-12-31T21:16:56.691Z,51.65
2022-12-31T21:19:24.625Z,51.67
2022-12-31T21:21:52.299Z,51.79
2022-12-31T21:24:23.870Z,51.75
2022-12-31T21:26:55.229Z,52.11
2022-12-31T21:29:23.700Z,51.73
2022-12-31T21:31:51.357Z,51.88
2022-12-31T21:34:19.268Z,51.86
2022-12-31T21:36:46.883Z,51.44
2022-12-31T21:39:14.850Z,52.21
2022-12-31T21:41:51.406Z,51.96
2022-12-31T21:44:22.003Z,52.14
2022-12-31T21:47:33.261Z,51.96
2022-12-31T21:49:44.667Z,51.28
2022-12-31T21:52:34.035Z,50.78
2022-12-31T21:55:24.076Z,50.88
2022-12-31T21:58:24.743Z,50.59
2022-12-31T22:00:59.172Z,50.77
2022-12-31T22:03:29.557Z,51.11
2022-12-31T22:06:12.512Z,52.99
2022-12-31T22:08:45.411Z,54.33
2022-12-31T22:11:15.254Z,55.09
2022-12-31T22:13:42.836Z,56.28
2022-12-31T22:16:13.245Z,57.60
2022-12-31T22:18:44.069Z,58.51
2022-12-31T22:21:22.217Z,59.27
2022-12-31T22:23:53.297Z,59.70
2022-12-31T22:26:25.866Z,60.08
2022-12-31T22:28:59.087Z,60.73
2022-12-31T22:31:30.278Z,60.63
2022-12-31T22:33:58.820Z,60.92
2022-12-31T22:36:26.942Z,60.64
2022-12-31T22:38:59.421Z,61.11
2022-12-31T22:41:28.585Z,61.82
2022-12-31T22:44:03.693Z,62.22
2022-12-31T22:46:33.542Z,63.19
2022-12-31T22:49:03.965Z,63.58
2022-12-31T22:51:56.390Z,63.99
2022-12-31T22:54:20.797Z,64.29
2022-12-31T22:56:48.975Z,64.86
2022-12-31T22:59:16.590Z,65.38
2022-12-31T23:01:44.651Z,65.61
2022-12-31T23:04:12.334Z,66.27
2022-12-31T23:06:44.238Z,66.32
2022-12-31T23:09:32.559Z,66.71
2022-12-31T23:12:01.504Z,67.23
2022-12-31T23:14:47.735Z,67.14
2022-12-31T23:17:38.818Z,67.91
2022-12-31T23:20:32.259Z,68.30
2022-12-31T23:23:12.849Z,68.41
2022-12-31T23:25:44.504Z,68.68
2022-12-31T23:28:20.138Z,69.66
2022-12-31T23:30:47.957Z,69.67
2022-12-31T23:33:22.841Z,70.23
2022-12-31T23:35:50.903Z,70.51
2022-12-31T23:38:19.180Z,70.89
2022-12-31T23:40:46.756Z,71.19
2022-12-31T23:43:21.876Z,71.35
2022-12-31T23:45:51.483Z,71.80
2022-12-31T23:48:19.586Z,71.71
2022-12-31T23:50:53.577Z,71.70
2022-12-31T23:53:25.098Z,71.72
2022-12-31T23:55:53.762Z,72.27
2022-12-31T23:58:22.456Z,71.98
